Time;durP1;ratioP1;P1;durP2;ratioP2;P2;SDS_P1;SDS_P2;PMS_P1;PMS_P2;Temp;Humidity;BMP_temperature;BMP_pressure;BME280_temperature;BME280_humidity;BME280_pressure;Samples;Min_cycle;Max_cycle;Signal;HPM_P1;HPM_P2
2021/09/13 00:00:52;;;;;;;34.60;25.25;;;14.70;99.90;;;;;;5054482;28;20056;-80
2021/09/13 00:03:18;;;;;;;39.50;28.42;;;14.70;99.90;;;;;;5054659;28;20060;-81
2021/09/13 00:05:44;;;;;;;33.42;25.30;;;14.60;99.90;;;;;;5052904;28;20049;-81
2021/09/13 00:08:09;;;;;;;35.70;25.38;;;14.60;99.90;;;;;;5054585;28;20025;-81
2021/09/13 00:10:35;;;;;;;37.85;27.23;;;14.60;99.90;;;;;;5054268;28;20141;-81
2021/09/13 00:13:01;;;;;;;39.17;26.58;;;14.60;99.90;;;;;;5054529;28;20056;-81
2021/09/13 00:15:26;;;;;;;36.10;27.10;;;14.60;99.90;;;;;;5052505;28;20353;-80
2021/09/13 00:17:52;;;;;;;36.65;25.52;;;14.50;99.90;;;;;;5052970;28;20029;-81
2021/09/13 00:20:18;;;;;;;39.20;26.02;;;14.50;99.90;;;;;;5053140;28;20047;-81
2021/09/13 00:22:43;;;;;;;39.15;27.60;;;14.50;99.90;;;;;;5052817;28;20024;-81
2021/09/13 00:25:10;;;;;;;38.35;26.50;;;14.50;99.90;;;;;;5052667;28;20021;-80
2021/09/13 00:27:35;;;;;;;36.30;26.52;;;14.50;99.90;;;;;;5052783;28;20108;-80
2021/09/13 00:30:01;;;;;;;41.22;28.05;;;14.50;99.90;;;;;;5052675;28;20452;-80
2021/09/13 00:32:27;;;;;;;36.25;25.85;;;14.50;99.90;;;;;;5053689;28;20063;-81
2021/09/13 00:34:52;;;;;;;37.53;27.13;;;14.50;99.90;;;;;;5053997;28;20391;-80
2021/09/13 00:37:18;;;;;;;40.03;27.90;;;14.40;99.90;;;;;;5052616;28;20033;-80
2021/09/13 00:39:44;;;;;;;37.45;26.70;;;14.40;99.90;;;;;;5052630;28;20055;-80
2021/09/13 00:42:09;;;;;;;34.70;25.75;;;14.40;99.90;;;;;;5054089;28;20519;-80
2021/09/13 00:44:35;;;;;;;37.08;26.27;;;14.40;99.90;;;;;;5053914;28;20491;-80
2021/09/13 00:47:01;;;;;;;39.38;28.60;;;14.40;99.90;;;;;;5053711;28;20021;-80
2021/09/13 00:49:27;;;;;;;38.35;29.02;;;14.40;99.90;;;;;;5053679;28;20028;-80
2021/09/13 00:51:53;;;;;;;43.05;30.52;;;14.40;99.90;;;;;;5053725;28;20033;-80
2021/09/13 00:54:19;;;;;;;42.60;31.67;;;14.40;99.90;;;;;;5053832;28;20349;-81
2021/09/13 00:56:45;;;;;;;40.33;28.65;;;14.40;99.90;;;;;;5053538;28;20031;-80
2021/09/13 00:59:12;;;;;;;41.10;28.58;;;14.30;99.90;;;;;;5053837;28;20025;-80
2021/09/13 01:01:38;;;;;;;41.33;29.48;;;14.30;99.90;;;;;;5053890;28;20441;-80
2021/09/13 01:04:04;;;;;;;40.42;30.25;;;14.30;99.90;;;;;;5052258;28;20357;-80
2021/09/13 01:06:30;;;;;;;43.85;30.15;;;14.30;99.90;;;;;;5053309;28;20404;-81
2021/09/13 01:08:56;;;;;;;37.08;26.17;;;14.30;99.90;;;;;;5053544;28;20087;-80
2021/09/13 01:11:23;;;;;;;40.38;28.05;;;14.20;99.90;;;;;;5053466;28;20352;-81
2021/09/13 01:13:49;;;;;;;41.00;28.73;;;14.30;99.90;;;;;;5052178;28;20467;-80
2021/09/13 01:16:15;;;;;;;40.50;29.02;;;14.20;99.90;;;;;;5052176;28;20040;-81
2021/09/13 01:18:41;;;;;;;37.47;28.98;;;14.20;99.90;;;;;;5052107;28;20426;-80
2021/09/13 01:21:07;;;;;;;38.17;27.08;;;14.20;99.90;;;;;;5052119;28;20159;-80
2021/09/13 01:23:35;;;;;;;38.17;28.95;;;14.20;99.90;;;;;;5052308;28;20111;-80
2021/09/13 01:26:02;;;;;;;38.40;28.88;;;14.10;99.90;;;;;;5053300;28;20043;-80
2021/09/13 01:28:27;;;;;;;37.63;28.20;;;14.10;99.90;;;;;;5057624;28;20025;-80
2021/09/13 01:30:54;;;;;;;37.47;28.63;;;14.10;99.90;;;;;;5057228;28;20017;-80
2021/09/13 01:33:22;;;;;;;40.78;28.50;;;14.00;99.90;;;;;;5057328;28;20017;-81
2021/09/13 01:35:48;;;;;;;41.42;29.45;;;14.00;99.90;;;;;;5055920;28;20179;-80
2021/09/13 01:38:16;;;;;;;37.00;26.95;;;14.00;99.90;;;;;;5055986;28;20483;-80
2021/09/13 01:40:42;;;;;;;40.63;28.60;;;14.00;99.90;;;;;;5055860;28;20079;-80
2021/09/13 01:43:08;;;;;;;36.10;27.15;;;13.90;99.90;;;;;;5056870;28;20429;-80
2021/09/13 01:45:33;;;;;;;43.47;30.10;;;13.90;99.90;;;;;;5055683;28;20124;-80
2021/09/13 01:47:59;;;;;;;38.83;28.08;;;13.90;99.90;;;;;;5056991;28;20021;-80
2021/09/13 01:50:25;;;;;;;40.97;28.73;;;13.90;99.90;;;;;;5057188;28;20506;-80
2021/09/13 01:52:50;;;;;;;41.38;29.90;;;13.90;99.90;;;;;;5056985;28;20032;-80
2021/09/13 01:55:16;;;;;;;44.17;29.27;;;13.90;99.90;;;;;;5057124;28;20083;-80
2021/09/13 01:57:42;;;;;;;40.17;28.45;;;13.80;99.90;;;;;;5055572;28;20064;-80
2021/09/13 02:00:09;;;;;;;41.55;29.40;;;13.80;99.90;;;;;;5055538;28;20123;-80
2021/09/13 02:02:34;;;;;;;40.33;28.13;;;13.80;99.90;;;;;;5056077;28;20036;-80
2021/09/13 02:05:00;;;;;;;37.83;28.88;;;13.80;99.90;;;;;;5055204;28;20057;-81
2021/09/13 02:07:26;;;;;;;40.58;28.48;;;13.80;99.90;;;;;;5056638;28;20021;-80
2021/09/13 02:09:54;;;;;;;41.47;29.08;;;13.70;99.90;;;;;;5055043;28;20060;-81
2021/09/13 02:12:21;;;;;;;37.78;28.88;;;13.70;99.90;;;;;;5055338;28;20059;-80
2021/09/13 02:14:47;;;;;;;41.58;29.98;;;13.70;99.90;;;;;;5056870;28;20024;-80
2021/09/13 02:17:13;;;;;;;41.58;30.13;;;13.70;99.90;;;;;;5056459;28;20017;-80
2021/09/13 02:19:38;;;;;;;42.97;30.27;;;13.70;99.90;;;;;;5056483;28;20456;-80
2021/09/13 02:22:04;;;;;;;42.53;30.33;;;13.60;99.90;;;;;;5055138;28;20017;-80
2021/09/13 02:24:30;;;;;;;44.08;30.73;;;13.60;99.90;;;;;;5054920;28;20029;-80
2021/09/13 02:26:56;;;;;;;40.00;29.35;;;13.60;99.90;;;;;;5055311;28;20032;-81
2021/09/13 02:29:22;;;;;;;43.10;29.60;;;13.60;99.90;;;;;;5055306;28;20112;-80
2021/09/13 02:31:47;;;;;;;40.63;29.33;;;13.60;99.90;;;;;;5056158;28;20464;-80
2021/09/13 02:34:13;;;;;;;42.67;29.83;;;13.60;99.90;;;;;;5056171;28;20025;-80
2021/09/13 02:36:39;;;;;;;39.92;30.13;;;13.60;99.90;;;;;;5056186;28;20052;-80
2021/09/13 02:39:06;;;;;;;43.50;29.17;;;13.50;99.90;;;;;;5055659;28;20112;-80
2021/09/13 02:41:32;;;;;;;40.58;29.25;;;13.50;99.90;;;;;;5055958;28;20025;-80
2021/09/13 02:43:58;;;;;;;47.42;34.17;;;13.50;99.90;;;;;;5055843;28;20029;-80
2021/09/13 02:46:24;;;;;;;55.85;40.58;;;13.50;99.90;;;;;;5055855;28;20025;-80
2021/09/13 02:48:49;;;;;;;75.18;57.50;;;13.50;99.90;;;;;;5056178;28;20021;-80
2021/09/13 02:51:15;;;;;;;98.50;69.90;;;13.50;99.90;;;;;;5054554;28;20068;-80
2021/09/13 02:53:41;;;;;;;97.45;71.95;;;13.50;99.90;;;;;;5055764;28;20021;-80
2021/09/13 02:56:06;;;;;;;101.55;80.18;;;13.50;99.90;;;;;;5056024;28;20029;-81
2021/09/13 02:58:33;;;;;;;102.03;76.25;;;13.50;99.90;;;;;;5055948;28;20024;-81
2021/09/13 03:00:58;;;;;;;108.68;79.40;;;13.50;99.90;;;;;;5055666;28;20103;-80
2021/09/13 03:03:24;;;;;;;97.07;74.90;;;13.50;99.90;;;;;;5055867;28;20055;-80
2021/09/13 03:05:51;;;;;;;97.53;72.05;;;13.50;99.90;;;;;;5055169;28;20075;-80
2021/09/13 03:08:17;;;;;;;89.35;66.75;;;13.40;99.90;;;;;;5054318;28;20021;-80
2021/09/13 03:10:44;;;;;;;86.20;66.63;;;13.50;99.90;;;;;;5055443;28;20101;-80
2021/09/13 03:13:09;;;;;;;74.35;56.42;;;13.40;99.90;;;;;;5055688;28;20071;-80
2021/09/13 03:15:35;;;;;;;81.97;61.08;;;13.50;99.90;;;;;;5054069;28;20024;-81
2021/09/13 03:18:01;;;;;;;153.88;104.60;;;13.50;99.90;;;;;;5054096;28;20400;-80
2021/09/13 03:20:26;;;;;;;91.18;65.43;;;13.50;99.90;;;;;;5055251;28;20028;-80
2021/09/13 03:22:52;;;;;;;103.13;73.80;;;13.50;99.90;;;;;;5055488;28;20021;-80
2021/09/13 03:25:18;;;;;;;129.23;90.90;;;13.40;99.90;;;;;;5053847;28;20040;-81
2021/09/13 03:27:44;;;;;;;165.40;112.38;;;13.40;99.90;;;;;;5053857;28;20021;-80
2021/09/13 03:30:10;;;;;;;104.32;75.68;;;13.40;99.90;;;;;;5055045;28;20379;-81
2021/09/13 03:32:36;;;;;;;142.23;94.97;;;13.40;99.90;;;;;;5053827;28;20487;-81
2021/09/13 03:35:02;;;;;;;92.50;65.28;;;13.40;99.90;;;;;;5053723;28;20048;-80
2021/09/13 03:37:28;;;;;;;80.90;55.42;;;13.40;99.90;;;;;;5054942;28;20415;-80
2021/09/13 03:39:54;;;;;;;60.83;43.75;;;13.40;99.90;;;;;;5053372;28;20032;-79
2021/09/13 03:42:19;;;;;;;60.25;43.33;;;13.40;99.90;;;;;;5053521;28;20448;-80
2021/09/13 03:44:45;;;;;;;52.10;37.08;;;13.40;99.90;;;;;;5054739;28;20031;-80
2021/09/13 03:47:11;;;;;;;54.13;37.40;;;13.40;99.90;;;;;;5054767;28;20047;-81
2021/09/13 03:49:36;;;;;;;77.50;52.78;;;13.40;99.90;;;;;;5053811;28;20379;-81
2021/09/13 03:52:07;;;;;;;74.68;50.63;;;13.40;99.90;;;;;;5054851;28;20032;-81
2021/09/13 03:54:33;;;;;;;79.22;55.38;;;13.40;99.90;;;;;;5054636;28;20013;-81
2021/09/13 03:56:58;;;;;;;93.22;64.68;;;13.40;99.90;;;;;;5054843;28;20032;-81
2021/09/13 03:59:24;;;;;;;171.18;111.13;;;13.40;99.90;;;;;;5054761;28;20104;-81
2021/09/13 04:01:50;;;;;;;111.00;76.82;;;13.50;99.90;;;;;;5053177;28;20064;-81
2021/09/13 04:04:17;;;;;;;127.10;87.20;;;13.50;99.90;;;;;;5054409;28;20075;-81
2021/09/13 04:06:48;;;;;;;134.93;90.07;;;13.60;99.90;;;;;;5054313;28;20028;-81
2021/09/13 04:12:09;;;;;;;98.47;68.22;;;13.70;99.90;;;;;;5053541;28;20083;-82
2021/09/13 04:14:35;;;;;;;143.05;97.40;;;13.70;99.90;;;;;;5052856;28;20021;-81
2021/09/13 04:17:00;;;;;;;131.05;93.05;;;13.80;99.90;;;;;;5054475;28;20025;-81
2021/09/13 16:31:22;;;;;;;40.45;25.45;;;18.90;86.30;;;;;;5111982;27;20384;-89
2021/09/13 16:33:48;;;;;;;27.25;15.90;;;18.40;86.50;;;;;;5111720;28;20032;-84
2021/09/13 16:36:14;;;;;;;66.20;41.03;;;18.30;88.60;;;;;;5109938;28;20026;-84
2021/09/13 16:38:40;;;;;;;37.25;23.63;;;18.20;90.30;;;;;;5110196;28;20027;-84
2021/09/13 16:41:06;;;;;;;37.03;20.63;;;18.20;90.70;;;;;;5110074;28;20047;-84
2021/09/13 16:43:32;;;;;;;34.63;20.45;;;18.20;91.20;;;;;;5109903;28;20028;-84
2021/09/13 16:45:58;;;;;;;44.20;18.08;;;18.10;91.70;;;;;;5109919;28;20032;-84
2021/09/13 16:48:23;;;;;;;31.80;17.60;;;18.20;92.20;;;;;;5109798;28;20035;-84
2021/09/13 16:50:49;;;;;;;35.13;16.55;;;18.10;92.70;;;;;;5109754;28;20028;-84
2021/09/13 16:53:15;;;;;;;36.28;16.80;;;18.10;93.10;;;;;;5109923;28;20024;-84
2021/09/13 16:55:40;;;;;;;33.00;16.20;;;18.10;93.40;;;;;;5111034;28;20382;-84
2021/09/13 16:58:06;;;;;;;28.80;16.35;;;18.10;93.60;;;;;;5111214;28;20024;-84
2021/09/13 17:00:32;;;;;;;32.10;16.67;;;18.00;93.80;;;;;;5109596;28;20115;-84
2021/09/13 17:02:57;;;;;;;35.67;16.83;;;18.00;94.10;;;;;;5109507;28;20111;-84
2021/09/13 17:05:24;;;;;;;26.98;15.77;;;18.00;94.30;;;;;;5110745;28;20378;-84
2021/09/13 17:07:49;;;;;;;30.65;16.70;;;18.00;94.30;;;;;;5110589;28;20496;-84
2021/09/13 17:10:15;;;;;;;29.65;16.15;;;18.00;94.50;;;;;;5109297;28;20028;-84
2021/09/13 17:12:41;;;;;;;28.23;15.43;;;17.90;94.50;;;;;;5109467;28;20027;-84
2021/09/13 17:15:07;;;;;;;29.92;17.00;;;17.90;94.40;;;;;;5109403;28;20363;-85
2021/09/13 17:17:33;;;;;;;30.10;16.50;;;17.90;94.60;;;;;;5109215;28;20466;-84
2021/09/13 17:19:58;;;;;;;29.13;16.08;;;17.90;94.70;;;;;;5110187;28;20055;-84
2021/09/13 17:22:26;;;;;;;30.02;19.00;;;17.90;94.90;;;;;;5108238;28;20024;-84
2021/09/13 17:24:52;;;;;;;34.08;21.02;;;17.80;95.00;;;;;;5110482;28;20023;-84
2021/09/13 17:27:18;;;;;;;39.65;23.40;;;17.80;95.20;;;;;;5108676;28;20118;-84
2021/09/13 17:29:44;;;;;;;37.83;22.60;;;17.80;95.40;;;;;;5108971;28;20126;-85
2021/09/13 17:32:10;;;;;;;40.42;23.35;;;17.70;95.50;;;;;;5110559;28;20028;-84
2021/09/13 17:34:35;;;;;;;45.55;24.27;;;17.70;95.60;;;;;;5110075;28;20526;-84
2021/09/13 17:37:01;;;;;;;50.03;24.23;;;17.70;95.80;;;;;;5110021;28;20047;-85
2021/09/13 17:39:27;;;;;;;46.35;23.48;;;17.60;96.00;;;;;;5108826;28;20063;-84
2021/09/13 17:41:53;;;;;;;61.95;23.17;;;17.60;96.30;;;;;;5100808;28;20024;-85
2021/09/13 17:44:19;;;;;;;50.13;23.25;;;17.60;96.50;;;;;;5095195;28;20459;-85
2021/09/13 17:46:45;;;;;;;49.88;23.40;;;17.60;96.80;;;;;;5095311;28;20030;-85
2021/09/13 17:49:11;;;;;;;57.08;31.90;;;17.50;97.00;;;;;;5096467;28;20028;-85
2021/09/13 17:51:39;;;;;;;51.50;23.88;;;17.50;97.10;;;;;;5094948;28;20035;-85
2021/09/13 17:54:04;;;;;;;53.58;23.27;;;17.50;97.10;;;;;;5095121;28;20024;-85
2021/09/13 17:56:31;;;;;;;41.58;20.58;;;17.50;97.40;;;;;;5094437;28;20032;-84
2021/09/13 17:58:56;;;;;;;39.15;21.60;;;17.40;97.50;;;;;;5095022;28;20024;-85
2021/09/13 18:01:22;;;;;;;46.63;25.15;;;17.40;97.60;;;;;;5096317;28;20093;-85
2021/09/13 18:03:48;;;;;;;47.03;22.50;;;17.40;97.70;;;;;;5096185;28;20024;-85
2021/09/13 18:06:16;;;;;;;41.80;19.95;;;17.30;97.90;;;;;;5096094;28;20017;-85
2021/09/13 18:08:42;;;;;;;44.40;20.00;;;17.30;97.90;;;;;;5095137;28;20024;-84
2021/09/13 18:11:08;;;;;;;41.35;20.77;;;17.30;98.00;;;;;;5094425;28;20460;-85
2021/09/13 18:13:34;;;;;;;39.20;19.48;;;17.20;98.10;;;;;;5095050;28;20028;-85
2021/09/13 18:16:00;;;;;;;41.88;20.83;;;17.20;98.10;;;;;;5095994;28;20124;-85
2021/09/13 18:18:26;;;;;;;40.65;20.40;;;17.20;98.30;;;;;;5094647;28;20028;-84
2021/09/13 18:20:53;;;;;;;38.65;21.38;;;17.20;98.30;;;;;;5094284;28;20035;-85
2021/09/13 18:23:20;;;;;;;48.30;21.73;;;17.10;98.30;;;;;;5095008;28;20032;-85
2021/09/13 18:25:46;;;;;;;44.55;22.35;;;17.10;98.40;;;;;;5094150;28;20484;-84
2021/09/13 18:28:13;;;;;;;42.90;23.40;;;17.10;98.60;;;;;;5094904;28;20035;-85
2021/09/13 18:30:40;;;;;;;48.67;24.48;;;17.10;98.60;;;;;;5093550;28;20070;-84
2021/09/13 18:33:06;;;;;;;56.33;26.13;;;17.00;98.60;;;;;;5090373;28;20107;-84
2021/09/13 18:35:33;;;;;;;46.20;25.15;;;17.00;98.60;;;;;;5094019;28;20110;-84
2021/09/13 18:37:59;;;;;;;44.53;26.80;;;17.00;98.70;;;;;;5095271;28;20016;-84
2021/09/13 18:40:25;;;;;;;55.78;28.75;;;16.90;98.90;;;;;;5095218;28;20466;-84
2021/09/13 18:42:51;;;;;;;177.95;107.78;;;16.90;98.90;;;;;;5095184;28;20600;-84
2021/09/13 18:45:18;;;;;;;81.70;45.15;;;16.90;98.90;;;;;;5093914;28;20034;-85
2021/09/13 18:47:45;;;;;;;69.60;36.95;;;16.90;98.90;;;;;;5093585;28;20123;-84
2021/09/13 18:50:11;;;;;;;65.50;38.28;;;16.80;99.10;;;;;;5095058;28;20074;-84
2021/09/13 18:52:37;;;;;;;64.43;37.85;;;16.80;99.30;;;;;;5093017;28;20020;-84
2021/09/13 18:55:07;;;;;;;61.85;37.40;;;16.80;99.30;;;;;;5094632;28;20012;-83
2021/09/13 18:57:33;;;;;;;70.28;39.17;;;16.80;99.60;;;;;;5094937;28;20532;-85
2021/09/13 19:00:01;;;;;;;74.38;39.95;;;16.80;99.50;;;;;;5095090;28;20089;-86
2021/09/13 19:02:34;;;;;;;75.28;42.45;;;16.80;99.60;;;;;;5094947;28;20106;-86
2021/09/13 19:05:02;;;;;;;92.70;47.83;;;16.70;99.60;;;;;;5094714;28;20020;-83
2021/09/13 19:07:29;;;;;;;83.13;45.75;;;16.70;99.50;;;;;;5093198;28;20028;-82
2021/09/13 19:09:55;;;;;;;101.78;53.53;;;16.70;99.70;;;;;;5092934;28;20034;-85
2021/09/13 19:12:23;;;;;;;91.18;51.28;;;16.70;99.70;;;;;;5093502;28;20113;-85
2021/09/13 19:14:49;;;;;;;128.52;81.65;;;16.70;99.70;;;;;;5093143;28;20027;-85
2021/09/13 19:17:15;;;;;;;132.50;72.30;;;16.70;99.80;;;;;;5094104;28;20021;-85
2021/09/13 19:19:40;;;;;;;106.05;60.63;;;16.70;99.80;;;;;;5094598;28;20024;-82
2021/09/13 19:22:06;;;;;;;145.55;88.95;;;16.70;99.90;;;;;;5093724;28;20095;-85
2021/09/13 19:24:32;;;;;;;119.07;68.35;;;16.70;99.90;;;;;;5093727;28;20438;-85
2021/09/13 19:26:58;;;;;;;115.53;62.90;;;16.70;99.90;;;;;;5093068;28;20626;-85
2021/09/13 19:29:23;;;;;;;113.55;65.18;;;16.70;99.90;;;;;;5092994;28;20545;-85
2021/09/13 19:31:49;;;;;;;118.82;63.80;;;16.60;99.90;;;;;;5093815;28;20025;-83
2021/09/13 19:34:15;;;;;;;123.05;65.20;;;16.70;99.90;;;;;;5092945;28;20639;-83
2021/09/13 19:36:41;;;;;;;123.47;65.78;;;16.60;99.90;;;;;;5094109;28;20024;-83
2021/09/13 19:39:09;;;;;;;124.03;69.57;;;16.60;99.90;;;;;;5094178;28;20047;-83
2021/09/13 19:41:37;;;;;;;146.77;81.03;;;16.60;99.90;;;;;;5093358;28;20077;-84
2021/09/13 19:44:03;;;;;;;119.72;69.07;;;16.60;99.90;;;;;;5093636;28;20024;-85
2021/09/13 19:46:30;;;;;;;141.00;70.68;;;16.60;99.90;;;;;;5092877;28;20363;-85
2021/09/13 19:48:58;;;;;;;126.88;68.78;;;16.50;99.90;;;;;;5092860;28;20016;-85
2021/09/13 19:51:25;;;;;;;128.00;69.70;;;16.50;99.90;;;;;;5092649;28;20024;-85
2021/09/13 19:53:50;;;;;;;134.20;66.57;;;16.60;99.90;;;;;;5094003;28;20047;-85
2021/09/13 19:56:17;;;;;;;109.35;61.17;;;16.60;99.90;;;;;;5092474;28;20024;-84
2021/09/13 19:58:43;;;;;;;107.45;60.28;;;16.70;99.90;;;;;;5092424;28;20043;-86
2021/09/13 20:01:09;;;;;;;94.82;49.63;;;16.70;99.90;;;;;;5089287;28;20036;-88
